Time;durP1;ratioP1;P1;durP2;ratioP2;P2;SDS_P1;SDS_P2;PMS_P1;PMS_P2;Temp;Humidity;BMP_temperature;BMP_pressure;BME280_temperature;BME280_humidity;BME280_pressure;Samples;Min_cycle;Max_cycle;Signal;HPM_P1;HPM_P2
2023/07/10 00:00:54;;;;;;;7.40;3.70;;;;;;;19.11;53.50;100292.77;105936;1256;60468;-65
2023/07/10 00:03:21;;;;;;;6.50;3.70;;;;;;;19.07;53.43;100294.96;105866;1254;60460;-66
2023/07/10 00:05:48;;;;;;;6.10;3.80;;;;;;;19.04;53.56;100293.04;105891;1254;65103;-64
2023/07/10 00:08:17;;;;;;;6.80;3.80;;;;;;;19.04;53.70;100288.89;105835;1254;61730;-65
2023/07/10 00:10:44;;;;;;;6.60;4.00;;;;;;;19.06;53.78;100288.27;105884;1256;64066;-65
2023/07/10 00:13:13;;;;;;;8.30;3.60;;;;;;;19.06;54.03;100289.95;105779;1254;60462;-67
2023/07/10 00:15:40;;;;;;;7.60;3.20;;;;;;;19.02;53.99;100285.79;105799;1260;60588;-68
2023/07/10 00:18:14;;;;;;;6.40;3.10;;;;;;;18.99;54.16;100286.55;105825;1260;65202;-64
2023/07/10 00:20:40;;;;;;;7.70;4.10;;;;;;;18.96;54.21;100284.37;105900;1255;61506;-65
2023/07/10 00:23:07;;;;;;;6.10;3.30;;;;;;;18.95;54.18;100283.41;105694;1261;64114;-64
2023/07/10 00:25:35;;;;;;;7.10;3.40;;;;;;;18.95;54.38;100282.30;105836;1260;60573;-65
2023/07/10 00:28:06;;;;;;;6.80;3.60;;;;;;;18.95;54.49;100286.45;105896;1256;60429;-65
2023/07/10 00:30:36;;;;;;;9.50;3.80;;;;;;;18.94;54.57;100288.98;105862;1258;64910;-66
2023/07/10 00:33:04;;;;;;;10.00;4.20;;;;;;;18.92;54.85;100287.43;105749;1260;61383;-65
2023/07/10 00:35:31;;;;;;;6.90;3.10;;;;;;;18.90;54.90;100287.69;105795;1261;64090;-64
2023/07/10 00:38:02;;;;;;;6.30;3.30;;;;;;;18.90;54.90;100289.02;105971;1254;60502;-64
2023/07/10 00:40:31;;;;;;;9.30;4.20;;;;;;;18.94;55.01;100292.21;105671;1258;60473;-64
2023/07/10 00:43:05;;;;;;;5.80;3.30;;;;;;;19.00;55.07;100292.50;105914;1254;65218;-64
2023/07/10 00:45:31;;;;;;;7.40;3.50;;;;;;;19.01;54.72;100292.11;105991;1256;71661;-65
2023/07/10 00:48:26;;;;;;;6.20;3.40;;;;;;;19.00;54.51;100296.56;105845;1254;64383;-65
2023/07/10 00:50:53;;;;;;;6.30;3.60;;;;;;;18.98;54.29;100295.12;105746;1256;60381;-64
2023/07/10 00:53:25;;;;;;;8.80;3.40;;;;;;;18.99;54.32;100296.43;105689;1254;60424;-64
2023/07/10 00:55:53;;;;;;;8.80;3.50;;;;;;;18.99;54.43;100298.24;106033;1255;63803;-64
2023/07/10 00:58:32;;;;;;;6.10;3.70;;;;;;;18.98;54.33;100296.02;105855;1256;61569;-64
2023/07/10 01:01:03;;;;;;;6.20;3.60;;;;;;;18.99;54.41;100297.04;105891;1258;64045;-62
2023/07/10 01:03:31;;;;;;;6.60;3.50;;;;;;;18.97;54.48;100301.83;105875;1254;60458;-64
2023/07/10 01:06:01;;;;;;;6.00;3.60;;;;;;;18.93;54.58;100301.23;105931;1258;60624;-65
2023/07/10 01:08:29;;;;;;;7.40;3.70;;;;;;;18.88;54.36;100302.33;106077;1258;65154;-64
2023/07/10 01:10:56;;;;;;;6.20;3.00;;;;;;;18.85;54.51;100299.70;105847;1256;61377;-66
2023/07/10 01:13:23;;;;;;;6.30;3.70;;;;;;;18.82;54.54;100302.83;105740;1256;63806;-65
2023/07/10 01:15:50;;;;;;;7.80;3.60;;;;;;;18.80;54.83;100304.70;105881;1254;60456;-65
2023/07/10 01:18:17;;;;;;;9.00;3.70;;;;;;;18.82;54.84;100305.36;105758;1256;60567;-66
2023/07/10 01:20:46;;;;;;;7.30;4.00;;;;;;;18.83;54.65;100305.13;105709;1259;65146;-64
2023/07/10 01:23:13;;;;;;;6.40;3.40;;;;;;;18.78;54.54;100306.46;105964;1259;60461;-64
2023/07/10 01:25:47;;;;;;;6.40;3.40;;;;;;;18.71;54.64;100307.49;105849;1255;63925;-62
2023/07/10 01:28:16;;;;;;;6.90;4.10;;;;;;;18.64;54.93;100304.41;105827;1260;60479;-63
2023/07/10 01:30:43;;;;;;;5.60;3.60;;;;;;;18.57;55.11;100305.73;105995;1254;60543;-68
2023/07/10 01:33:17;;;;;;;6.20;3.50;;;;;;;18.51;55.27;100310.04;105856;1254;65103;-62
2023/07/10 01:35:46;;;;;;;6.50;3.60;;;;;;;18.44;55.60;100308.36;105852;1254;61695;-64
2023/07/10 01:38:13;;;;;;;7.10;3.90;;;;;;;18.35;55.84;100309.13;105928;1256;62660;-64
2023/07/10 01:40:43;;;;;;;9.10;3.70;;;;;;;18.26;55.89;100314.73;105883;1255;60570;-67
2023/07/10 01:43:10;;;;;;;6.10;3.50;;;;;;;18.20;56.21;100316.34;105903;1256;60451;-65
2023/07/10 01:45:45;;;;;;;8.20;3.70;;;;;;;18.15;56.46;100314.39;105772;1256;64010;-67
2023/07/10 01:48:12;;;;;;;5.80;3.70;;;;;;;18.13;56.71;100313.41;105795;1261;61810;-66
2023/07/10 01:50:40;;;;;;;6.80;3.80;;;;;;;18.10;56.81;100317.98;105893;1257;63964;-63
2023/07/10 01:53:07;;;;;;;6.80;3.50;;;;;;;18.07;57.01;100318.58;105670;1261;60893;-62
2023/07/10 01:55:38;;;;;;;5.80;3.40;;;;;;;18.05;57.18;100324.93;105670;1256;59306;-61
2023/07/10 01:58:06;;;;;;;6.80;4.30;;;;;;;18.04;57.14;100320.17;105422;1258;65533;-60
2023/07/10 02:00:33;;;;;;;8.10;3.70;;;;;;;18.01;57.17;100325.91;105424;1257;61765;-59
2023/07/10 02:02:59;;;;;;;8.60;3.80;;;;;;;17.97;57.33;100329.85;105398;1254;63907;-60
2023/07/10 02:05:26;;;;;;;5.90;3.30;;;;;;;17.91;57.67;100332.86;105444;1256;60539;-60
2023/07/10 02:07:54;;;;;;;7.80;4.00;;;;;;;17.88;57.67;100337.17;105450;1256;60916;-61
2023/07/10 02:10:20;;;;;;;5.80;3.70;;;;;;;17.86;57.72;100337.13;105275;1261;65078;-64
2023/07/10 02:12:59;;;;;;;6.70;3.60;;;;;;;17.84;57.85;100341.31;105359;1256;61663;-60
2023/07/10 02:15:26;;;;;;;6.30;3.70;;;;;;;17.81;58.04;100337.00;105511;1256;63803;-62
2023/07/10 02:17:57;;;;;;;6.20;3.80;;;;;;;17.79;58.20;100341.13;105346;1256;60487;-60
2023/07/10 02:20:24;;;;;;;6.40;3.90;;;;;;;17.76;58.35;100345.83;105523;1254;60595;-61
2023/07/10 02:22:51;;;;;;;6.00;3.60;;;;;;;17.74;58.40;100353.55;105565;1258;65295;-61
2023/07/10 02:25:18;;;;;;;6.80;3.70;;;;;;;17.73;58.49;100352.95;105945;1256;61436;-62
2023/07/10 02:27:45;;;;;;;9.50;3.80;;;;;;;17.75;58.54;100353.31;105731;1256;62732;-59
2023/07/10 02:30:11;;;;;;;8.70;4.10;;;;;;;17.78;58.44;100355.23;105757;1256;60520;-64
2023/07/10 02:32:38;;;;;;;6.60;3.80;;;;;;;17.82;58.40;100352.70;105391;1254;60461;-60
2023/07/10 02:35:05;;;;;;;6.70;4.00;;;;;;;17.84;58.38;100350.30;105441;1258;65108;-60
2023/07/10 02:37:32;;;;;;;7.30;4.20;;;;;;;17.85;58.19;100350.59;105430;1256;61502;-62
2023/07/10 02:40:01;;;;;;;6.40;4.10;;;;;;;17.85;58.18;100348.95;105524;1259;62783;-61
2023/07/10 02:42:28;;;;;;;6.90;4.50;;;;;;;17.85;58.28;100349.73;105153;1257;60539;-60
2023/07/10 02:44:55;;;;;;;9.40;4.50;;;;;;;17.83;58.39;100352.03;105500;1256;60793;-60
2023/07/10 02:50:50;;;;;;;6.30;4.40;;;;;;;17.78;58.57;100354.92;105837;1259;63293;-62
2023/07/10 02:53:17;;;;;;;9.50;4.70;;;;;;;17.80;58.69;100353.59;105923;1260;64253;-62
2023/07/10 02:55:44;;;;;;;7.20;4.20;;;;;;;17.85;58.61;100348.44;105862;1255;60477;-61
2023/07/10 02:58:10;;;;;;;8.50;4.20;;;;;;;17.90;58.59;100349.05;105916;1254;60473;-60
2023/07/10 03:00:37;;;;;;;8.00;4.70;;;;;;;17.93;58.70;100352.02;105344;1258;65384;-60
2023/07/10 03:03:04;;;;;;;9.20;3.70;;;;;;;17.96;58.88;100358.23;105726;1254;61354;-61
2023/07/10 03:05:31;;;;;;;8.60;4.60;;;;;;;17.99;58.85;100361.95;105852;1258;62658;-60
2023/07/10 03:07:58;;;;;;;7.70;4.10;;;;;;;18.08;58.73;100368.09;105742;1259;60557;-63
2023/07/10 03:10:25;;;;;;;7.80;4.60;;;;;;;18.20;58.38;100366.64;105885;1261;60426;-60
2023/07/10 03:12:52;;;;;;;6.80;4.20;;;;;;;18.28;58.07;100365.47;105776;1261;65257;-63
2023/07/10 03:15:18;;;;;;;7.60;4.40;;;;;;;18.35;58.02;100365.96;105868;1256;61732;-64
2023/07/10 03:17:46;;;;;;;6.30;3.70;;;;;;;18.41;57.74;100361.34;105910;1261;64108;-64
2023/07/10 03:20:13;;;;;;;5.80;4.00;;;;;;;18.44;57.71;100358.36;105882;1256;61731;-65
2023/07/10 03:22:41;;;;;;;9.60;4.10;;;;;;;18.49;57.67;100360.86;105881;1256;60493;-64
2023/07/10 03:25:08;;;;;;;8.00;3.70;;;;;;;18.53;57.41;100362.28;105726;1260;65270;-65
2023/07/10 03:27:35;;;;;;;8.90;4.00;;;;;;;18.56;57.33;100361.94;105850;1256;61498;-63
2023/07/10 03:30:01;;;;;;;9.90;4.50;;;;;;;18.59;57.43;100361.27;105846;1259;63831;-62
2023/07/10 03:32:28;;;;;;;9.00;4.50;;;;;;;18.64;57.30;100365.10;105810;1255;60579;-62
2023/07/10 03:34:57;;;;;;;9.20;3.90;;;;;;;18.71;57.22;100368.30;105864;1259;60451;-63
2023/07/10 03:37:25;;;;;;;7.60;3.90;;;;;;;18.75;57.35;100368.30;105819;1256;64976;-63
2023/07/10 03:39:51;;;;;;;6.00;3.80;;;;;;;18.83;57.15;100367.30;105836;1254;61516;-64
2023/07/10 03:42:18;;;;;;;8.10;4.10;;;;;;;18.88;56.84;100363.32;105887;1256;65243;-64
2023/07/10 03:44:44;;;;;;;6.70;4.30;;;;;;;18.90;56.55;100358.39;105837;1258;60571;-63
2023/07/10 03:47:11;;;;;;;6.90;3.80;;;;;;;18.97;56.55;100365.14;105855;1257;60540;-65
2023/07/10 03:49:38;;;;;;;5.70;3.80;;;;;;;19.03;56.48;100368.04;105866;1257;67647;-63
2023/07/10 03:52:05;;;;;;;6.70;4.30;;;;;;;19.10;56.48;100366.58;105878;1256;70278;-60
2023/07/10 03:54:33;;;;;;;6.90;3.80;;;;;;;19.21;56.28;100368.73;105822;1256;64024;-65
2023/07/10 03:57:00;;;;;;;6.40;3.60;;;;;;;19.30;56.36;100362.38;106081;1256;60450;-63
2023/07/10 03:59:27;;;;;;;10.30;4.10;;;;;;;19.37;56.32;100359.98;105977;1256;60427;-63
2023/07/10 04:01:53;;;;;;;7.20;3.70;;;;;;;19.44;55.90;100358.98;105872;1254;63721;-61
2023/07/10 04:04:21;;;;;;;7.00;4.30;;;;;;;19.47;55.78;100361.02;105902;1256;61988;-63
2023/07/10 04:06:47;;;;;;;7.50;4.30;;;;;;;19.52;55.72;100357.98;105793;1258;64526;-66
2023/07/10 04:09:18;;;;;;;7.20;4.80;;;;;;;19.57;55.54;100350.08;105913;1257;60540;-61
2023/07/10 04:11:45;;;;;;;8.00;3.90;;;;;;;19.63;55.02;100352.75;105854;1254;60432;-63
2023/07/10 04:14:12;;;;;;;5.80;3.60;;;;;;;19.67;55.04;100350.14;105939;1259;65291;-64
2023/07/10 04:16:38;;;;;;;6.00;3.60;;;;;;;19.75;54.93;100347.85;105926;1256;61396;-64
2023/07/10 04:19:05;;;;;;;7.60;3.80;;;;;;;19.83;54.57;100347.42;105894;1258;64620;-63
2023/07/10 04:21:32;;;;;;;7.00;3.60;;;;;;;19.88;54.59;100347.52;105871;1257;60435;-63
2023/07/10 04:23:59;;;;;;;8.20;4.10;;;;;;;19.95;54.18;100348.11;105862;1254;60429;-64
2023/07/10 04:26:33;;;;;;;7.00;3.50;;;;;;;20.00;54.14;100346.97;105921;1258;65254;-66
2023/07/10 04:29:02;;;;;;;6.90;3.80;;;;;;;20.06;53.69;100348.28;105903;1254;61781;-65
2023/07/10 04:31:29;;;;;;;6.00;4.20;;;;;;;20.11;53.76;100347.94;105907;1258;63910;-67
2023/07/10 04:37:23;;;;;;;6.10;4.00;;;;;;;20.24;53.28;100342.16;105679;1256;60559;-64
2023/07/10 04:39:50;;;;;;;5.90;4.00;;;;;;;20.26;52.91;100340.80;105167;1265;72944;-65
2023/07/10 04:42:46;;;;;;;7.00;4.20;;;;;;;20.27;53.40;100341.17;105635;1259;61508;-67
2023/07/10 04:45:13;;;;;;;7.50;4.20;;;;;;;20.31;53.09;100337.20;105361;1263;64155;-65
2023/07/10 04:47:46;;;;;;;6.70;3.90;;;;;;;20.39;52.83;100338.86;105091;1270;61345;-66
2023/07/10 04:50:16;;;;;;;6.10;4.30;;;;;;;20.48;52.47;100339.16;105105;1271;60908;-66
2023/07/10 04:52:43;;;;;;;6.50;4.10;;;;;;;20.55;52.29;100339.68;105313;1267;65556;-65
2023/07/10 04:55:10;;;;;;;7.80;3.80;;;;;;;20.61;52.21;100339.75;105631;1265;61820;-67
2023/07/10 04:57:38;;;;;;;7.50;4.30;;;;;;;20.67;52.15;100338.02;105360;1265;64382;-67
2023/07/10 05:00:33;;;;;;;5.30;3.50;;;;;;;20.74;51.96;100338.92;105313;1268;62913;-70
2023/07/10 05:03:04;;;;;;;6.20;3.70;;;;;;;20.81;51.97;100338.94;104919;1262;60488;-66
2023/07/10 05:05:31;;;;;;;5.80;3.60;;;;;;;20.87;51.86;100337.65;105402;1267;65190;-66
2023/07/10 05:07:59;;;;;;;7.50;4.40;;;;;;;20.92;51.67;100337.20;105285;1265;73278;-66
2023/07/10 05:10:27;;;;;;;5.90;3.70;;;;;;;20.96;51.42;100333.85;105361;1265;64262;-66
2023/07/10 05:12:53;;;;;;;10.40;4.00;;;;;;;21.01;51.51;100334.03;105519;1265;60509;-65
2023/07/10 05:15:20;;;;;;;9.90;3.70;;;;;;;21.06;51.13;100337.58;105435;1261;60548;-65
2023/07/10 05:17:48;;;;;;;6.40;3.80;;;;;;;21.09;50.92;100333.81;105563;1260;65250;-65
2023/07/10 05:20:15;;;;;;;6.40;3.80;;;;;;;21.13;51.35;100332.23;105582;1259;61354;-67
2023/07/10 05:22:42;;;;;;;7.50;3.70;;;;;;;21.18;51.31;100328.20;105554;1260;64063;-64
2023/07/10 05:25:09;;;;;;;5.70;3.40;;;;;;;21.24;51.45;100328.67;105570;1256;60581;-64
2023/07/10 05:27:37;;;;;;;7.00;4.00;;;;;;;21.31;51.33;100323.33;105917;1259;61685;-70
2023/07/10 05:30:05;;;;;;;6.30;3.90;;;;;;;21.38;50.35;100321.23;105897;1254;63792;-64
2023/07/10 05:32:32;;;;;;;6.20;4.00;;;;;;;21.43;50.32;100321.63;105969;1255;61401;-68
2023/07/10 05:34:59;;;;;;;5.90;3.80;;;;;;;21.48;50.14;100323.54;105717;1262;63884;-66
2023/07/10 05:37:26;;;;;;;5.80;3.70;;;;;;;21.53;50.11;100323.88;105837;1256;60686;-70
2023/07/10 05:39:53;;;;;;;8.30;3.90;;;;;;;21.57;49.53;100326.70;105944;1254;60442;-65
2023/07/10 05:42:20;;;;;;;6.00;3.60;;;;;;;21.62;49.79;100326.80;105856;1256;63718;-63
2023/07/10 05:44:47;;;;;;;6.90;3.80;;;;;;;21.67;49.49;100328.66;105412;1262;61350;-60
2023/07/10 05:47:14;;;;;;;8.80;3.80;;;;;;;21.72;49.78;100328.89;105284;1254;64012;-64
2023/07/10 05:49:41;;;;;;;5.70;3.30;;;;;;;21.77;49.07;100327.02;105292;1253;60569;-64
2023/07/10 05:52:10;;;;;;;5.80;3.80;;;;;;;21.81;48.84;100327.23;105360;1255;60926;-61
2023/07/10 05:54:37;;;;;;;5.50;3.10;;;;;;;21.84;48.73;100321.61;104733;1270;64905;-61
2023/07/10 05:57:05;;;;;;;6.80;3.50;;;;;;;21.87;48.54;100321.39;105004;1264;61675;-64
2023/07/10 05:59:32;;;;;;;6.50;3.40;;;;;;;21.91;48.59;100321.44;105088;1262;64518;-61
2023/07/10 06:01:58;;;;;;;6.50;3.80;;;;;;;21.96;48.97;100319.17;105006;1259;60381;-62
2023/07/10 06:04:26;;;;;;;5.90;3.50;;;;;;;22.03;48.61;100322.86;104988;1262;60542;-61
2023/07/10 06:06:55;;;;;;;5.60;3.20;;;;;;;22.10;48.42;100320.66;104933;1260;65284;-61
2023/07/10 06:09:21;;;;;;;7.20;4.00;;;;;;;22.15;48.66;100323.19;104971;1263;62056;-59
2023/07/10 06:11:48;;;;;;;6.60;3.60;;;;;;;22.20;48.67;100320.54;105006;1264;63940;-60
2023/07/10 06:14:15;;;;;;;7.40;3.40;;;;;;;22.26;48.07;100320.96;104928;1262;60578;-62
2023/07/10 06:16:43;;;;;;;7.80;3.60;;;;;;;22.33;47.85;100324.93;104887;1263;294673;-62
2023/07/10 06:24:43;;;;;;;7.50;3.40;;;;;;;22.41;47.07;100325.13;104576;1267;59368;-60
2023/07/10 06:27:13;;;;;;;9.00;3.70;;;;;;;22.48;46.62;100321.92;104235;1279;59374;-60
2023/07/10 06:29:41;;;;;;;10.80;3.80;;;;;;;22.53;46.85;100315.74;105005;1265;63297;-60
2023/07/10 06:32:09;;;;;;;7.20;3.60;;;;;;;22.57;46.45;100315.55;104723;1268;61605;-58
2023/07/10 06:34:36;;;;;;;7.50;4.00;;;;;;;22.62;46.48;100316.17;104316;1264;423631;-58
2023/07/10 06:37:04;;;;;;;8.60;4.20;;;;;;;22.67;46.83;100312.55;104870;1263;59410;-58
2023/07/10 06:39:31;;;;;;;6.10;3.30;;;;;;;22.73;46.63;100313.80;104928;1264;59496;-60
2023/07/10 06:41:59;;;;;;;6.30;3.70;;;;;;;22.78;46.63;100312.20;104955;1266;63249;-63
2023/07/10 06:44:29;;;;;;;6.10;3.80;;;;;;;22.82;46.26;100310.59;105039;1264;61367;-60
2023/07/10 06:46:57;;;;;;;5.90;3.40;;;;;;;22.85;45.10;100308.16;104868;1264;63756;-58
2023/07/10 06:50:20;;;;;;;6.80;3.90;;;;;;;22.88;45.64;100306.42;104891;1267;59752;-61
2023/07/10 06:52:51;;;;;;;6.50;3.80;;;;;;;22.91;45.97;100304.58;104238;1270;61945;-60
2023/07/10 06:55:18;;;;;;;6.50;3.50;;;;;;;22.92;46.26;100303.50;104459;1263;62847;-60
2023/07/10 06:57:46;;;;;;;5.90;3.60;;;;;;;22.95;46.13;100303.02;104819;1267;61441;-63
2023/07/10 07:00:14;;;;;;;6.70;3.50;;;;;;;22.98;46.14;100300.12;104854;1264;64106;-60
2023/07/10 07:02:42;;;;;;;6.90;3.70;;;;;;;23.00;46.75;100304.12;105016;1264;59671;-59
2023/07/10 07:05:10;;;;;;;8.00;3.90;;;;;;;23.06;46.90;100300.33;104938;1265;59759;-57
2023/07/10 07:07:38;;;;;;;6.80;3.60;;;;;;;23.13;46.14;100295.27;104827;1264;64203;-57
2023/07/10 07:10:08;;;;;;;6.50;3.80;;;;;;;23.19;46.41;100294.94;105015;1267;60104;-61
2023/07/10 07:13:02;;;;;;;7.20;3.40;;;;;;;23.24;46.14;100290.18;104904;1263;63793;-63
2023/07/10 07:15:33;;;;;;;6.70;3.40;;;;;;;23.27;45.50;100288.52;104994;1254;59733;-63
2023/07/10 07:18:01;;;;;;;8.70;3.30;;;;;;;23.31;44.99;100289.05;105168;1257;59628;-62
2023/07/10 07:20:32;;;;;;;7.10;2.90;;;;;;;23.38;44.74;100288.30;105671;1251;62892;-71
2023/07/10 07:23:02;;;;;;;5.70;3.40;;;;;;;23.45;44.47;100288.61;105676;1261;60369;-66
2023/07/10 07:25:30;;;;;;;9.00;3.20;;;;;;;23.52;44.32;100285.34;105469;1256;72397;-64
2023/07/10 07:28:03;;;;;;;7.00;4.00;;;;;;;23.59;44.24;100284.48;105937;1255;59659;-61
2023/07/10 07:30:31;;;;;;;7.70;3.70;;;;;;;23.67;44.44;100283.64;105749;1257;59780;-59
2023/07/10 07:32:59;;;;;;;7.40;3.60;;;;;;;23.74;43.46;100277.54;105638;1251;62822;-71
2023/07/10 07:35:27;;;;;;;9.10;3.70;;;;;;;23.79;43.52;100276.29;105796;1256;61422;-72
2023/07/10 07:37:55;;;;;;;6.90;3.90;;;;;;;23.84;43.45;100274.35;105969;1256;64211;-75
2023/07/10 07:40:22;;;;;;;6.10;3.60;;;;;;;23.89;43.36;100272.02;105584;1257;59523;-62
2023/07/10 07:42:50;;;;;;;8.30;4.50;;;;;;;23.93;43.83;100274.11;105586;1257;59666;-65
2023/07/10 07:45:18;;;;;;;5.50;3.30;;;;;;;23.99;43.25;100265.98;105608;1254;62845;-63
2023/07/10 07:47:45;;;;;;;6.10;3.40;;;;;;;24.03;42.28;100264.76;105505;1251;61338;-63
2023/07/10 07:50:13;;;;;;;9.60;3.50;;;;;;;24.06;42.41;100265.70;105643;1251;63755;-70
2023/07/10 07:52:41;;;;;;;7.20;3.90;;;;;;;24.12;42.90;100265.09;105627;1251;59666;-67
2023/07/10 07:55:09;;;;;;;6.00;4.20;;;;;;;24.19;42.41;100264.46;105664;1256;59624;-65
2023/07/10 07:57:38;;;;;;;7.30;3.80;;;;;;;24.23;41.60;100264.61;105662;1257;64110;-66
2023/07/10 08:00:08;;;;;;;7.30;3.80;;;;;;;24.26;41.85;100265.70;105761;1251;61307;-68
2023/07/10 08:02:42;;;;;;;6.90;3.70;;;;;;;24.35;42.35;100261.20;105608;1257;62424;-67
2023/07/10 08:05:10;;;;;;;6.30;3.50;;;;;;;24.41;41.64;100256.02;105625;1257;59768;-65
2023/07/10 08:07:57;;;;;;;5.20;3.10;;;;;;;24.43;41.49;100255.55;105598;1254;59697;-70
2023/07/10 08:10:25;;;;;;;6.10;3.20;;;;;;;24.46;41.45;100257.19;105535;1257;63907;-65
2023/07/10 08:12:53;;;;;;;5.60;3.30;;;;;;;24.55;41.76;100261.99;105689;1251;61887;-64
2023/07/10 08:15:21;;;;;;;7.10;2.90;;;;;;;24.64;40.91;100265.20;105538;1251;63724;-61
2023/07/10 08:18:58;;;;;;;6.10;2.70;;;;;;;24.72;40.02;100258.80;105576;1257;59733;-58
2023/07/10 08:21:25;;;;;;;7.50;3.60;;;;;;;24.73;39.62;100256.19;104945;1267;59643;-58
2023/07/10 08:23:53;;;;;;;6.50;3.10;;;;;;;24.72;39.96;100258.86;105691;1256;64064;-59
2023/07/10 08:26:27;;;;;;;6.00;3.20;;;;;;;24.71;40.19;100254.80;105595;1256;61627;-62
2023/07/10 08:28:57;;;;;;;5.30;2.70;;;;;;;24.74;39.62;100256.60;105343;1262;63731;-61
2023/07/10 08:31:26;;;;;;;7.30;2.70;;;;;;;24.76;39.64;100253.20;105034;1251;59762;-61
2023/07/10 08:33:53;;;;;;;5.60;3.10;;;;;;;24.79;39.68;100252.87;105645;1256;59567;-64
2023/07/10 08:36:20;;;;;;;6.00;2.60;;;;;;;24.84;40.29;100257.09;105782;1251;64260;-60
2023/07/10 08:38:48;;;;;;;5.60;3.10;;;;;;;24.90;40.36;100256.42;105603;1251;61484;-58
2023/07/10 08:42:01;;;;;;;4.90;2.50;;;;;;;24.98;40.08;100258.23;105650;1257;63838;-69
2023/07/10 08:45:01;;;;;;;5.40;2.80;;;;;;;25.06;39.17;100252.25;104706;1270;59598;-61
2023/07/10 08:47:32;;;;;;;5.50;3.30;;;;;;;25.15;39.84;100251.67;104670;1253;60112;-59
2023/07/10 08:50:21;;;;;;;5.60;2.90;;;;;;;25.23;39.83;100253.63;105308;1255;64147;-59
2023/07/10 08:52:54;;;;;;;7.50;2.70;;;;;;;25.23;39.43;100253.41;105919;1257;60254;-60
2023/07/10 08:55:51;;;;;;;5.00;2.60;;;;;;;25.16;39.63;100255.46;106071;1254;63729;-61
2023/07/10 08:58:20;;;;;;;;;;;;;;;25.12;39.33;100257.22;105332;1254;59743;-58
2023/07/10 09:00:48;;;;;;;5.60;2.00;;;;;;;25.15;38.90;100250.19;105718;1253;59663;-62
2023/07/10 09:03:40;;;;;;;4.50;1.90;;;;;;;25.20;38.13;100249.18;106011;1251;64074;-62
2023/07/10 09:06:19;;;;;;;4.70;2.00;;;;;;;25.27;37.02;100241.01;105627;1257;60080;-63
2023/07/10 09:08:49;;;;;;;5.80;2.10;;;;;;;25.33;37.60;100240.43;106104;1256;62525;-59
2023/07/10 09:11:17;;;;;;;5.50;2.20;;;;;;;25.38;37.82;100236.17;105873;1252;59732;-60
2023/07/10 09:14:28;;;;;;;4.60;2.40;;;;;;;25.40;38.35;100235.91;106002;1254;59814;-66
2023/07/10 09:16:59;;;;;;;5.30;2.60;;;;;;;25.34;38.81;100244.06;105075;1253;62840;-63
2023/07/10 09:19:27;;;;;;;4.50;2.40;;;;;;;25.25;38.86;100243.88;105735;1254;60173;-58
2023/07/10 09:21:54;;;;;;;5.40;2.40;;;;;;;25.18;39.31;100246.96;105222;1257;62471;-58
2023/07/10 09:24:22;;;;;;;5.50;2.70;;;;;;;25.11;38.94;100247.54;105261;1251;59638;-57
2023/07/10 09:26:50;;;;;;;6.90;2.40;;;;;;;25.06;38.78;100241.16;105873;1251;59624;-62
2023/07/10 09:29:21;;;;;;;4.50;2.00;;;;;;;25.11;39.06;100237.64;105912;1251;64196;-58
2023/07/10 09:31:53;;;;;;;4.60;2.30;;;;;;;25.23;38.88;100231.05;105635;1254;61400;-61
2023/07/10 09:34:22;;;;;;;3.80;2.00;;;;;;;25.34;38.70;100227.98;105603;1257;63726;-55
2023/07/10 09:36:53;;;;;;;4.50;2.00;;;;;;;25.41;37.96;100237.60;105669;1254;60446;-59
2023/07/10 09:39:24;;;;;;;3.70;1.70;;;;;;;25.46;37.30;100239.52;105603;1251;59682;-58
2023/07/10 09:42:43;;;;;;;5.40;2.20;;;;;;;25.48;37.02;100235.54;105691;1251;64690;-58
2023/07/10 09:45:17;;;;;;;5.30;1.90;;;;;;;25.47;37.29;100234.95;105038;1254;61639;-58
2023/07/10 09:47:50;;;;;;;6.40;2.00;;;;;;;25.46;37.58;100238.20;105522;1256;63920;-59
2023/07/10 09:50:18;;;;;;;3.80;1.80;;;;;;;25.45;37.98;100241.48;105524;1254;59851;-58
2023/07/10 09:52:55;;;;;;;3.80;1.70;;;;;;;25.45;38.29;100240.98;105686;1254;59580;-57
2023/07/10 09:55:23;;;;;;;3.90;1.70;;;;;;;25.47;38.40;100240.02;105816;1257;64342;-60
2023/07/10 09:57:59;;;;;;;4.90;1.80;;;;;;;25.48;38.49;100237.56;105667;1256;60090;-59
2023/07/10 10:00:27;;;;;;;5.40;2.20;;;;;;;25.43;37.71;100237.27;105575;1254;63732;-59
2023/07/10 10:03:01;;;;;;;4.50;2.10;;;;;;;25.35;38.21;100243.98;105729;1254;59749;-59
2023/07/10 10:05:31;;;;;;;5.60;2.20;;;;;;;25.31;38.60;100244.96;105728;1251;59685;-67
2023/07/10 10:08:04;;;;;;;4.60;2.40;;;;;;;25.28;37.57;100243.50;105645;1251;62867;-64
2023/07/10 10:10:33;;;;;;;4.40;2.10;;;;;;;25.23;37.09;100243.61;105546;1251;61391;-58
2023/07/10 10:13:15;;;;;;;3.80;2.00;;;;;;;25.18;37.01;100240.13;105760;1254;63733;-56
2023/07/10 10:16:06;;;;;;;5.60;2.50;;;;;;;25.16;37.19;100245.11;105439;1251;59832;-56
2023/07/10 10:18:36;;;;;;;3.70;1.80;;;;;;;25.16;37.39;100244.25;105711;1253;59649;-57
2023/07/10 10:21:04;;;;;;;5.10;1.80;;;;;;;25.16;37.87;100242.76;105730;1251;64209;-66
2023/07/10 10:23:33;;;;;;;4.80;2.00;;;;;;;25.17;37.89;100244.37;105931;1257;60117;-62
2023/07/10 10:26:26;;;;;;;7.10;2.00;;;;;;;25.21;37.97;100246.44;106125;1251;63791;-63
2023/07/10 10:29:13;;;;;;;6.70;1.90;;;;;;;25.28;38.06;100243.02;106092;1251;59638;-67
2023/07/10 10:32:32;;;;;;;3.90;1.90;;;;;;;25.43;38.15;100240.47;106503;1251;59668;-66
2023/07/10 10:35:02;;;;;;;4.40;1.80;;;;;;;25.62;36.21;100234.36;105407;1257;62949;-65
2023/07/10 10:37:39;;;;;;;4.30;1.80;;;;;;;25.69;36.39;100233.08;105261;1257;61686;-73
2023/07/10 10:40:40;;;;;;;5.80;1.90;;;;;;;25.72;36.80;100232.92;105576;1261;63819;-66
2023/07/10 10:43:24;;;;;;;4.30;1.50;;;;;;;25.74;36.57;100228.67;105550;1256;60550;-63
2023/07/10 10:46:41;;;;;;;4.20;1.70;;;;;;;25.79;36.26;100225.12;105842;1256;60617;-67
2023/07/10 10:49:28;;;;;;;5.10;1.80;;;;;;;25.94;36.93;100220.30;105489;1257;64984;-65
2023/07/10 10:52:46;;;;;;;4.40;1.80;;;;;;;26.04;36.04;100221.83;105364;1267;60646;-69
2023/07/10 10:56:04;;;;;;;4.70;2.10;;;;;;;26.10;35.37;100212.00;105456;1257;63751;-68
2023/07/10 10:58:55;;;;;;;3.80;1.60;;;;;;;26.12;36.10;100204.08;105613;1257;60742;-70
2023/07/10 11:01:40;;;;;;;4.00;1.80;;;;;;;26.17;38.26;100206.34;105760;1256;60543;-71
2023/07/10 11:04:31;;;;;;;4.40;2.00;;;;;;;26.19;38.93;100206.71;105773;1256;63683;-69
2023/07/10 11:07:01;;;;;;;4.10;1.80;;;;;;;26.17;38.99;100208.33;106110;1251;61227;-70
2023/07/10 11:09:31;;;;;;;5.30;2.00;;;;;;;26.13;39.47;100205.65;106051;1257;63701;-67
2023/07/10 11:11:58;;;;;;;6.30;2.40;;;;;;;26.10;39.59;100202.26;105956;1256;60468;-70
2023/07/10 11:14:26;;;;;;;3.70;1.70;;;;;;;26.10;39.75;100200.23;105928;1251;60562;-63
2023/07/10 11:16:54;;;;;;;5.10;1.70;;;;;;;26.13;39.45;100199.34;105803;1256;65068;-55
2023/07/10 11:20:04;;;;;;;4.10;1.90;;;;;;;26.18;39.45;100197.03;105737;1256;60469;-56
2023/07/10 11:22:35;;;;;;;4.10;1.90;;;;;;;26.27;38.14;100191.29;105562;1256;63703;-55
2023/07/10 11:25:57;;;;;;;4.50;1.70;;;;;;;26.35;36.06;100192.66;105072;1251;60537;-57
2023/07/10 11:28:26;;;;;;;4.20;1.70;;;;;;;26.49;34.55;100188.70;105352;1251;60776;-56
2023/07/10 11:31:16;;;;;;;4.20;1.60;;;;;;;26.67;33.75;100185.74;105524;1254;64923;-57
2023/07/10 11:33:45;;;;;;;4.30;2.20;;;;;;;26.84;32.61;100181.40;105619;1254;61303;-64
2023/07/10 11:36:25;;;;;;;3.80;1.60;;;;;;;26.97;32.71;100179.96;105550;1259;63736;-59
2023/07/10 11:39:05;;;;;;;3.70;1.50;;;;;;;27.07;32.78;100175.09;105514;1253;60476;-60
2023/07/10 11:41:53;;;;;;;11.40;2.40;;;;;;;27.06;32.56;100178.04;105481;1251;60825;-59
2023/07/10 11:44:31;;;;;;;3.90;1.70;;;;;;;26.97;32.49;100180.05;105410;1257;64934;-57
2023/07/10 11:47:17;;;;;;;6.20;1.50;;;;;;;26.83;32.53;100182.33;105503;1257;60417;-63
2023/07/10 11:49:51;;;;;;;3.40;1.50;;;;;;;26.70;33.13;100186.56;105646;1254;63710;-58
2023/07/10 11:52:18;;;;;;;4.30;1.80;;;;;;;26.55;34.74;100188.58;105512;1257;60549;-61